Who's Online

We have 2 guests online

GK Weather

An error occured during parsing XML data. Please try again.

Aviation WX

[source: ADDS]
METAR
KIAD 301328Z 00000KT 3SM BR OVC007 17/16 A2994 RMK AO2 SFC VIS 5 =
TAF
KIAD 301307Z 3013/0118 00000KT 5SM BR BKN004 OVC010 FM301400 00000KT P6SM BKN025 OVC050 FM301900 10004KT P6SM OVC250 =
SR / SS: 00:47 / 12:36 UTC (Washington-Dulles 2014-09-30)

JoomlaWatch Agent

Home Links
We are regularly out on the Web. When we find a great site we list it.